Time;durP1;ratioP1;P1;durP2;ratioP2;P2;SDS_P1;SDS_P2;PMS_P1;PMS_P2;Temp;Humidity;BMP_temperature;BMP_pressure;BME280_temperature;BME280_humidity;BME280_pressure;Samples;Min_cycle;Max_cycle;Signal;HPM_P1;HPM_P2
2021/10/23 00:00:31;;;;;;;19.52;14.00;;;9.80;91.60;;;;;;5004729;28;20025;-71
2021/10/23 00:02:56;;;;;;;15.95;13.00;;;9.90;91.60;;;;;;5005746;28;20030;-71
2021/10/23 00:05:22;;;;;;;16.17;12.90;;;9.90;91.60;;;;;;5006606;28;20454;-75
2021/10/23 00:07:47;;;;;;;15.32;11.82;;;9.90;91.60;;;;;;5008017;28;20034;-73
2021/10/23 00:10:13;;;;;;;19.67;14.00;;;9.90;91.70;;;;;;5005373;28;20026;-71
2021/10/23 00:12:39;;;;;;;18.40;13.38;;;9.90;91.70;;;;;;5007346;28;20030;-72
2021/10/23 00:15:06;;;;;;;16.83;13.65;;;9.90;91.70;;;;;;5002869;28;20057;-72
2021/10/23 00:17:32;;;;;;;18.42;14.13;;;9.90;91.60;;;;;;5007104;28;20042;-72
2021/10/23 00:20:00;;;;;;;19.95;15.55;;;9.80;91.60;;;;;;5004457;28;20423;-73
2021/10/23 00:22:26;;;;;;;18.63;14.32;;;9.80;91.60;;;;;;4997417;28;20107;-71
2021/10/23 00:24:52;;;;;;;19.35;14.90;;;9.80;91.60;;;;;;5007646;28;20037;-72
2021/10/23 00:27:18;;;;;;;20.30;13.98;;;9.80;91.60;;;;;;5008663;28;20033;-71
2021/10/23 00:29:43;;;;;;;19.50;14.55;;;9.80;91.60;;;;;;5009751;28;20113;-76
2021/10/23 00:32:09;;;;;;;20.35;14.05;;;9.80;91.50;;;;;;5001945;28;20061;-71
2021/10/23 00:34:35;;;;;;;17.98;13.90;;;9.70;91.50;;;;;;5005706;28;20100;-72
2021/10/23 00:37:00;;;;;;;15.75;13.60;;;9.70;91.40;;;;;;5001411;28;20133;-71
2021/10/23 00:39:26;;;;;;;17.55;13.50;;;9.60;91.50;;;;;;5004918;28;20038;-70
2021/10/23 00:41:51;;;;;;;17.75;13.88;;;9.60;91.60;;;;;;5002187;28;20022;-71
2021/10/23 00:44:35;;;;;;;15.98;13.73;;;9.60;91.60;;;;;;5005590;28;20109;-71
2021/10/23 00:47:06;;;;;;;20.48;13.80;;;9.60;91.70;;;;;;5005865;28;20045;-73
2021/10/23 00:49:33;;;;;;;19.85;14.45;;;9.60;91.70;;;;;;5022109;28;20381;-72
2021/10/23 00:52:00;;;;;;;17.52;14.90;;;9.60;91.80;;;;;;5007906;28;20034;-72
2021/10/23 00:54:26;;;;;;;19.77;15.07;;;9.60;91.90;;;;;;5004969;28;20049;-72
2021/10/23 00:56:53;;;;;;;18.98;14.77;;;9.60;91.90;;;;;;5007999;28;20116;-71
2021/10/23 00:59:20;;;;;;;16.45;13.65;;;9.60;91.90;;;;;;5022121;28;20524;-71
2021/10/23 01:01:46;;;;;;;17.85;14.30;;;9.60;91.90;;;;;;5007242;28;20041;-72
2021/10/23 01:04:11;;;;;;;19.48;14.27;;;9.60;91.90;;;;;;5006648;28;20461;-75
2021/10/23 01:06:38;;;;;;;19.90;14.88;;;9.70;91.90;;;;;;5007211;28;20111;-72
2021/10/23 01:09:05;;;;;;;18.00;15.63;;;9.70;92.00;;;;;;5006436;28;20101;-73
2021/10/23 01:11:31;;;;;;;16.70;14.15;;;9.70;91.90;;;;;;5007958;28;20106;-73
2021/10/23 01:13:56;;;;;;;19.92;15.00;;;9.70;91.90;;;;;;5010112;28;20112;-72
2021/10/23 01:16:22;;;;;;;19.23;14.85;;;9.80;91.90;;;;;;5009797;28;20046;-73
2021/10/23 01:18:48;;;;;;;19.95;15.80;;;9.70;91.90;;;;;;5010966;28;20069;-71
2021/10/23 01:21:13;;;;;;;16.55;13.80;;;9.70;91.90;;;;;;5009106;28;20121;-76
2021/10/23 01:23:39;;;;;;;17.65;15.32;;;9.70;91.90;;;;;;5007175;28;20045;-72
2021/10/23 01:26:05;;;;;;;19.92;14.82;;;9.70;91.90;;;;;;5008383;28;20037;-72
2021/10/23 01:28:30;;;;;;;18.67;14.35;;;9.70;92.00;;;;;;5009693;28;20774;-72
2021/10/23 01:30:57;;;;;;;17.23;14.90;;;9.70;92.00;;;;;;5000120;28;20038;-72
2021/10/23 01:33:23;;;;;;;19.30;14.23;;;9.60;92.00;;;;;;5010852;28;20030;-72
2021/10/23 01:35:49;;;;;;;17.75;14.77;;;9.60;92.00;;;;;;5011343;28;20034;-77
2021/10/23 01:38:14;;;;;;;16.35;14.63;;;9.70;92.00;;;;;;5005095;28;20050;-73
2021/10/23 01:40:40;;;;;;;19.00;14.77;;;9.60;92.00;;;;;;5006922;28;20081;-72
2021/10/23 01:43:06;;;;;;;18.20;14.98;;;9.60;92.10;;;;;;5003980;28;20025;-73
2021/10/23 01:45:33;;;;;;;17.95;15.38;;;9.60;92.10;;;;;;5007256;28;20053;-74
2021/10/23 01:47:59;;;;;;;17.70;14.80;;;9.60;92.10;;;;;;5009476;28;20458;-72
2021/10/23 01:50:27;;;;;;;18.80;15.85;;;9.60;92.20;;;;;;5003656;28;20480;-73
2021/10/23 01:52:54;;;;;;;19.58;16.55;;;9.60;92.20;;;;;;5010571;28;20112;-72
2021/10/23 01:55:20;;;;;;;20.17;15.43;;;9.60;92.20;;;;;;5005454;28;20031;-72
2021/10/23 01:57:46;;;;;;;18.10;15.82;;;9.60;92.20;;;;;;5013277;28;20048;-72
2021/10/23 02:00:15;;;;;;;19.27;15.98;;;9.60;92.20;;;;;;5008228;28;20429;-74
2021/10/23 02:02:41;;;;;;;21.58;16.90;;;9.60;92.20;;;;;;5005830;28;20048;-72
2021/10/23 02:05:07;;;;;;;18.58;16.55;;;9.60;92.20;;;;;;5005757;28;20026;-72
2021/10/23 02:07:33;;;;;;;19.52;17.33;;;9.50;92.20;;;;;;5007136;28;20026;-72
2021/10/23 02:09:59;;;;;;;21.33;18.00;;;9.50;92.30;;;;;;5009164;28;20026;-72
2021/10/23 02:12:25;;;;;;;19.40;16.85;;;9.50;92.30;;;;;;5007936;28;20029;-72
2021/10/23 02:14:50;;;;;;;18.80;16.38;;;9.40;92.30;;;;;;5004438;28;20025;-71
2021/10/23 02:17:16;;;;;;;19.65;16.52;;;9.30;92.30;;;;;;5004941;28;20035;-72
2021/10/23 02:19:42;;;;;;;19.38;16.58;;;9.30;92.40;;;;;;5002927;28;20034;-73
2021/10/23 02:22:07;;;;;;;19.70;16.60;;;9.20;92.50;;;;;;5003126;28;20038;-72
2021/10/23 02:24:33;;;;;;;19.17;16.67;;;9.10;92.50;;;;;;5005665;28;20057;-72
2021/10/23 02:26:59;;;;;;;20.73;16.80;;;9.10;92.60;;;;;;5009537;28;20466;-72
2021/10/23 02:29:25;;;;;;;19.77;16.08;;;9.00;92.60;;;;;;5006807;28;20057;-72
2021/10/23 02:31:51;;;;;;;20.20;16.40;;;8.90;92.60;;;;;;5005767;28;20081;-73
2021/10/23 02:34:18;;;;;;;18.98;16.98;;;8.90;92.70;;;;;;5005638;28;20365;-74
2021/10/23 02:36:44;;;;;;;18.67;16.73;;;8.80;92.70;;;;;;5007134;28;20065;-73
2021/10/23 02:39:10;;;;;;;19.38;17.27;;;8.80;92.70;;;;;;5002876;28;20089;-71
2021/10/23 02:41:35;;;;;;;19.10;17.02;;;8.80;92.80;;;;;;5009525;28;20049;-73
2021/10/23 02:44:01;;;;;;;20.02;17.67;;;8.70;92.90;;;;;;5000934;28;20409;-72
2021/10/23 02:46:27;;;;;;;19.75;17.17;;;8.80;93.00;;;;;;5007797;28;20030;-71
2021/10/23 02:48:53;;;;;;;21.13;18.15;;;8.80;93.00;;;;;;5005038;28;20093;-72
2021/10/23 02:51:19;;;;;;;20.85;18.65;;;8.80;93.10;;;;;;5001020;28;20044;-73
2021/10/23 02:53:44;;;;;;;21.73;19.42;;;8.80;93.00;;;;;;5006197;28;20348;-72
2021/10/23 02:56:10;;;;;;;21.27;18.00;;;8.80;93.00;;;;;;5007626;28;20470;-72
2021/10/23 02:58:36;;;;;;;22.88;17.75;;;8.80;93.10;;;;;;5012340;28;20034;-72
2021/10/23 03:01:02;;;;;;;20.73;18.17;;;8.90;93.10;;;;;;5008640;28;20480;-72
2021/10/23 03:03:28;;;;;;;18.52;16.52;;;8.80;93.00;;;;;;5008243;28;20046;-72
2021/10/23 03:05:54;;;;;;;23.52;19.52;;;8.90;93.00;;;;;;5008533;28;20060;-71
2021/10/23 03:08:20;;;;;;;22.80;19.88;;;8.90;93.00;;;;;;5005987;28;20018;-72
2021/10/23 03:10:45;;;;;;;22.48;18.98;;;8.90;93.00;;;;;;5009266;28;20033;-73
2021/10/23 03:13:11;;;;;;;20.73;18.48;;;8.90;92.90;;;;;;5007285;28;20030;-72
2021/10/23 03:15:37;;;;;;;20.30;17.95;;;8.90;93.00;;;;;;5005931;28;20030;-72
2021/10/23 03:18:03;;;;;;;21.27;18.30;;;8.90;93.00;;;;;;5006016;28;20450;-74
2021/10/23 03:20:29;;;;;;;22.30;19.60;;;8.90;93.00;;;;;;5002496;28;20160;-71
2021/10/23 03:22:54;;;;;;;19.88;17.40;;;8.90;93.00;;;;;;5002592;28;20034;-72
2021/10/23 03:25:20;;;;;;;20.25;18.08;;;8.90;93.10;;;;;;5007537;28;20397;-72
2021/10/23 03:27:46;;;;;;;20.40;17.48;;;8.90;93.00;;;;;;5004613;28;20019;-72
2021/10/23 03:30:11;;;;;;;19.38;16.35;;;8.90;93.00;;;;;;5009106;28;20705;-73
2021/10/23 03:32:37;;;;;;;20.23;17.88;;;8.90;93.00;;;;;;5007570;28;20038;-71
2021/10/23 03:35:04;;;;;;;22.17;18.05;;;8.90;93.00;;;;;;5007742;28;20079;-73
2021/10/23 03:37:30;;;;;;;21.00;18.10;;;8.80;93.00;;;;;;5001241;28;20046;-72
2021/10/23 03:39:57;;;;;;;21.73;17.75;;;8.80;93.00;;;;;;5006333;28;20409;-71
2021/10/23 03:42:23;;;;;;;20.88;18.70;;;8.80;93.00;;;;;;5002938;28;20045;-71
2021/10/23 03:44:49;;;;;;;22.58;20.10;;;8.70;93.00;;;;;;5007551;28;20487;-71
2021/10/23 03:47:16;;;;;;;20.45;17.83;;;8.70;93.00;;;;;;5007684;28;20068;-72
2021/10/23 03:49:43;;;;;;;20.77;18.05;;;8.70;93.00;;;;;;5006847;28;20092;-73
2021/10/23 03:52:09;;;;;;;20.08;17.95;;;8.70;93.10;;;;;;5007198;28;20655;-71
2021/10/23 03:54:35;;;;;;;22.90;20.50;;;8.70;93.00;;;;;;5008097;28;20065;-73
2021/10/23 03:57:00;;;;;;;23.52;19.58;;;8.80;93.10;;;;;;5006933;28;20054;-72
2021/10/23 03:59:26;;;;;;;25.15;19.77;;;8.80;93.20;;;;;;5007042;28;20140;-72
2021/10/23 04:01:52;;;;;;;21.83;19.45;;;8.90;93.20;;;;;;5008916;28;20113;-72
2021/10/23 04:04:17;;;;;;;23.45;20.17;;;8.90;93.30;;;;;;5006237;28;20026;-72
2021/10/23 04:06:43;;;;;;;21.67;18.58;;;8.90;93.20;;;;;;5007584;28;20033;-74
2021/10/23 04:09:09;;;;;;;25.17;22.45;;;8.90;93.20;;;;;;5001439;28;20533;-71
2021/10/23 04:11:35;;;;;;;21.48;19.15;;;9.00;93.20;;;;;;5008539;28;20499;-72
2021/10/23 04:14:01;;;;;;;20.33;18.10;;;8.90;93.20;;;;;;5004953;28;20026;-73
2021/10/23 04:16:27;;;;;;;22.08;19.77;;;8.90;93.30;;;;;;5005531;28;20465;-72
2021/10/23 04:18:52;;;;;;;25.83;19.17;;;8.90;93.20;;;;;;5000047;28;20188;-74
2021/10/23 04:21:18;;;;;;;24.77;19.75;;;9.00;93.30;;;;;;5005985;28;20026;-74
2021/10/23 04:23:44;;;;;;;21.48;18.58;;;8.90;93.20;;;;;;5005662;28;20539;-72
2021/10/23 04:26:10;;;;;;;19.55;17.20;;;8.90;93.30;;;;;;5006129;28;20101;-72
2021/10/23 04:28:35;;;;;;;23.63;18.30;;;8.90;93.30;;;;;;5009608;28;20040;-72
2021/10/23 04:31:01;;;;;;;21.45;18.63;;;8.90;93.30;;;;;;5005847;28;20026;-72
2021/10/23 04:33:27;;;;;;;21.20;18.10;;;8.90;93.30;;;;;;5007040;28;20457;-72
2021/10/23 04:35:52;;;;;;;21.95;18.85;;;8.90;93.40;;;;;;5004351;28;20097;-72
2021/10/23 04:38:18;;;;;;;23.25;20.30;;;8.90;93.30;;;;;;5002145;28;20053;-72
2021/10/23 04:40:44;;;;;;;24.77;20.58;;;8.90;93.30;;;;;;5002734;28;20413;-72
2021/10/23 04:43:10;;;;;;;24.05;19.70;;;8.90;93.40;;;;;;5000043;28;20068;-72
2021/10/23 04:45:36;;;;;;;20.75;17.67;;;8.90;93.40;;;;;;5011601;28;20347;-72
2021/10/23 04:48:02;;;;;;;23.23;19.58;;;8.90;93.30;;;;;;5007092;28;20065;-72
2021/10/23 04:50:28;;;;;;;20.48;18.27;;;9.00;93.30;;;;;;5004324;28;20121;-71
2021/10/23 04:52:54;;;;;;;21.35;18.30;;;8.90;93.30;;;;;;5007773;28;20113;-72
2021/10/23 04:55:20;;;;;;;22.63;18.25;;;9.00;93.30;;;;;;5008169;28;20026;-71
2021/10/23 04:57:46;;;;;;;21.00;18.30;;;9.00;93.30;;;;;;5011342;28;20488;-72
2021/10/23 05:00:12;;;;;;;21.95;19.42;;;9.00;93.30;;;;;;5009503;28;20033;-72
2021/10/23 05:02:37;;;;;;;23.67;19.08;;;9.00;93.30;;;;;;5002734;28;20026;-71
2021/10/23 05:05:03;;;;;;;19.95;17.85;;;9.00;93.20;;;;;;5023456;28;20026;-74
2021/10/23 05:07:29;;;;;;;24.67;20.40;;;9.00;93.20;;;;;;5008937;28;20022;-71
2021/10/23 05:09:54;;;;;;;21.05;17.80;;;8.90;93.20;;;;;;5007108;28;20033;-72
2021/10/23 05:12:20;;;;;;;25.08;20.85;;;8.90;93.20;;;;;;5009177;28;20038;-72
2021/10/23 05:14:46;;;;;;;24.35;20.05;;;8.90;93.20;;;;;;5010586;28;20069;-72
2021/10/23 05:17:12;;;;;;;25.85;18.73;;;8.80;93.20;;;;;;5006533;28;20042;-72
2021/10/23 05:19:37;;;;;;;22.63;19.48;;;8.70;93.20;;;;;;5010799;28;20157;-71
2021/10/23 05:22:03;;;;;;;22.80;19.38;;;8.70;93.20;;;;;;5009441;28;20077;-71
2021/10/23 05:24:29;;;;;;;22.83;18.77;;;8.70;93.20;;;;;;5009701;28;20104;-72
2021/10/23 05:26:55;;;;;;;22.35;19.05;;;8.60;93.30;;;;;;5002305;28;20103;-72
2021/10/23 05:29:20;;;;;;;24.20;19.08;;;8.60;93.30;;;;;;5014568;28;21014;-74
2021/10/23 05:31:46;;;;;;;24.35;19.40;;;8.60;93.30;;;;;;5009633;28;20034;-71
2021/10/23 05:34:12;;;;;;;21.60;18.42;;;8.60;93.30;;;;;;5008855;28;20025;-71
2021/10/23 05:36:38;;;;;;;20.88;17.15;;;8.60;93.40;;;;;;5013654;28;20037;-72
2021/10/23 05:39:04;;;;;;;25.50;19.65;;;8.60;93.40;;;;;;5006560;28;20089;-72
2021/10/23 05:41:29;;;;;;;21.60;19.10;;;8.60;93.40;;;;;;5009325;28;20018;-73
2021/10/23 05:43:55;;;;;;;22.77;18.35;;;8.60;93.40;;;;;;5010389;28;20038;-71
2021/10/23 05:46:21;;;;;;;23.17;19.35;;;8.50;93.40;;;;;;5009357;28;20042;-72
2021/10/23 05:48:47;;;;;;;29.15;22.42;;;8.50;93.30;;;;;;5009989;28;20033;-71
2021/10/23 05:51:13;;;;;;;23.00;19.42;;;8.50;93.40;;;;;;5006840;28;20025;-71
2021/10/23 05:53:39;;;;;;;21.85;18.15;;;8.40;93.40;;;;;;5011224;28;20022;-72
2021/10/23 05:56:05;;;;;;;22.98;19.00;;;8.40;93.40;;;;;;5008177;28;20061;-72
2021/10/23 05:58:30;;;;;;;22.77;19.30;;;8.40;93.40;;;;;;5011129;28;20527;-74
2021/10/23 06:01:07;;;;;;;28.65;21.90;;;8.40;93.50;;;;;;5007455;28;20037;-71
2021/10/23 06:03:37;;;;;;;26.60;21.10;;;8.50;93.50;;;;;;5009342;28;20046;-72
2021/10/23 06:06:03;;;;;;;24.65;20.17;;;8.50;93.60;;;;;;5004203;28;20026;-72
2021/10/23 06:08:30;;;;;;;23.55;20.20;;;8.50;93.60;;;;;;5008551;28;20033;-72
2021/10/23 06:10:56;;;;;;;26.17;20.38;;;8.50;93.60;;;;;;5009961;28;20037;-71
2021/10/23 06:13:23;;;;;;;26.40;21.65;;;8.60;93.50;;;;;;5007942;28;20026;-72
2021/10/23 06:15:50;;;;;;;24.50;20.35;;;8.60;93.60;;;;;;5007762;28;20030;-72
2021/10/23 06:18:16;;;;;;;26.50;21.95;;;8.60;93.50;;;;;;5007970;28;20022;-72
2021/10/23 06:20:42;;;;;;;26.95;19.77;;;8.60;93.40;;;;;;5008230;28;20049;-73
2021/10/23 06:23:07;;;;;;;26.98;20.63;;;8.60;93.30;;;;;;5006723;28;20592;-73
2021/10/23 06:25:33;;;;;;;24.45;19.95;;;8.60;93.20;;;;;;5007848;28;20388;-71
2021/10/23 06:27:59;;;;;;;23.13;18.67;;;8.60;93.20;;;;;;5011519;28;20497;-72
2021/10/23 06:30:25;;;;;;;25.95;19.10;;;8.50;93.10;;;;;;5014317;28;20092;-71
2021/10/23 06:32:53;;;;;;;23.23;17.33;;;8.40;93.10;;;;;;5002536;28;20398;-71
2021/10/23 06:35:19;;;;;;;22.75;18.23;;;8.50;93.20;;;;;;5003593;28;20485;-72
2021/10/23 06:37:46;;;;;;;26.35;18.60;;;8.30;93.10;;;;;;5003858;28;20042;-72
2021/10/23 06:40:12;;;;;;;22.92;17.67;;;8.40;93.20;;;;;;5005227;28;20041;-72
2021/10/23 06:42:39;;;;;;;22.25;17.05;;;8.30;93.10;;;;;;5002744;28;20021;-73
2021/10/23 06:45:07;;;;;;;22.73;18.88;;;8.30;93.10;;;;;;5004115;28;20373;-73
2021/10/23 06:47:34;;;;;;;21.05;17.15;;;8.30;93.30;;;;;;5007555;28;20108;-72
2021/10/23 06:50:00;;;;;;;23.67;17.88;;;8.30;93.20;;;;;;5016136;28;20382;-72
2021/10/23 06:52:26;;;;;;;22.88;17.98;;;8.30;93.20;;;;;;5004580;28;20036;-73
2021/10/23 06:54:52;;;;;;;28.15;19.92;;;8.30;93.20;;;;;;4999367;28;20039;-72
2021/10/23 06:57:18;;;;;;;21.95;17.73;;;8.30;93.10;;;;;;5004287;28;20491;-73
2021/10/23 06:59:44;;;;;;;26.02;18.38;;;8.20;93.10;;;;;;5004728;28;20035;-71
2021/10/23 07:02:09;;;;;;;21.58;17.33;;;8.30;93.10;;;;;;5001477;28;20030;-71
2021/10/23 07:04:35;;;;;;;22.10;16.13;;;8.40;93.10;;;;;;5001835;28;20092;-73
2021/10/23 07:07:01;;;;;;;24.25;17.20;;;8.30;93.00;;;;;;4996087;28;20029;-72
2021/10/23 07:09:27;;;;;;;25.15;18.23;;;8.30;93.00;;;;;;5002569;28;20033;-72
2021/10/23 07:11:52;;;;;;;21.35;18.48;;;8.30;93.00;;;;;;5001248;28;20104;-72
2021/10/23 07:14:18;;;;;;;21.52;17.63;;;8.30;93.00;;;;;;5002180;28;20040;-71
2021/10/23 07:16:44;;;;;;;23.02;17.30;;;8.40;92.90;;;;;;5001551;28;20065;-71
2021/10/23 07:19:10;;;;;;;24.58;17.77;;;8.40;92.80;;;;;;5001046;28;20080;-72
2021/10/23 07:21:35;;;;;;;22.65;17.52;;;8.50;92.80;;;;;;5002868;28;20663;-73
2021/10/23 07:24:01;;;;;;;19.33;16.42;;;8.40;92.60;;;;;;5000365;28;20042;-72
2021/10/23 07:26:28;;;;;;;20.23;16.50;;;8.40;92.60;;;;;;5004858;28;20049;-73
2021/10/23 07:28:53;;;;;;;21.77;17.35;;;8.50;92.60;;;;;;5010480;28;20030;-69
2021/10/23 07:31:19;;;;;;;23.50;17.70;;;8.50;92.60;;;;;;5005074;28;20076;-70
2021/10/23 07:33:45;;;;;;;23.35;16.90;;;8.50;92.50;;;;;;5002857;28;20046;-71
2021/10/23 07:36:13;;;;;;;20.90;16.35;;;8.50;92.50;;;;;;4998414;28;20104;-70
2021/10/23 07:38:39;;;;;;;23.08;17.73;;;8.60;92.60;;;;;;5003543;28;20100;-71
2021/10/23 07:41:06;;;;;;;21.13;16.15;;;8.60;92.50;;;;;;5005513;28;20453;-70
2021/10/23 07:43:32;;;;;;;23.20;18.35;;;8.60;92.50;;;;;;5006525;28;20034;-71
2021/10/23 07:45:58;;;;;;;22.25;17.75;;;8.60;92.40;;;;;;5005397;28;20049;-69
2021/10/23 07:48:24;;;;;;;20.60;17.08;;;8.60;92.30;;;;;;5004635;28;20508;-73
2021/10/23 07:50:49;;;;;;;22.85;16.20;;;8.60;92.40;;;;;;5006564;28;20104;-70
2021/10/23 07:53:15;;;;;;;22.92;17.92;;;8.70;92.40;;;;;;5001916;28;20034;-74
2021/10/23 07:55:41;;;;;;;23.63;18.08;;;8.80;92.40;;;;;;5004777;28;20458;-70
2021/10/23 07:58:07;;;;;;;23.38;17.20;;;8.80;92.30;;;;;;5013503;28;20484;-70
2021/10/23 08:00:33;;;;;;;22.77;17.40;;;8.90;92.40;;;;;;5000020;28;20072;-69
2021/10/23 08:03:00;;;;;;;23.20;17.10;;;9.00;92.40;;;;;;5002810;28;20030;-69
2021/10/23 08:05:27;;;;;;;22.63;16.15;;;9.10;92.30;;;;;;5005076;28;20026;-70
2021/10/23 08:07:53;;;;;;;25.40;16.75;;;9.10;92.20;;;;;;5002260;28;20414;-72
2021/10/23 08:10:21;;;;;;;27.60;16.48;;;9.20;92.10;;;;;;5006935;28;20030;-71
2021/10/23 08:12:47;;;;;;;22.67;16.65;;;9.40;92.10;;;;;;5004455;28;20029;-69
2021/10/23 08:15:13;;;;;;;22.45;16.98;;;9.50;91.90;;;;;;4998138;28;20030;-69
2021/10/23 08:17:40;;;;;;;21.08;15.73;;;9.60;91.80;;;;;;5006324;28;20457;-69
2021/10/23 08:20:08;;;;;;;22.52;15.90;;;9.80;91.60;;;;;;5011402;28;20045;-73
2021/10/23 08:22:34;;;;;;;18.70;14.52;;;9.90;91.00;;;;;;5005409;28;20018;-70
2021/10/23 08:25:03;;;;;;;19.77;14.05;;;10.10;90.80;;;;;;5011510;28;20516;-69
2021/10/23 08:27:31;;;;;;;20.15;14.60;;;10.30;90.40;;;;;;5009714;28;20428;-69
2021/10/23 08:29:57;;;;;;;18.10;13.52;;;10.50;89.70;;;;;;5018825;28;20533;-69
2021/10/23 08:32:23;;;;;;;16.83;13.15;;;10.70;89.20;;;;;;5011012;28;20093;-70
2021/10/23 08:34:49;;;;;;;18.92;12.85;;;10.90;88.30;;;;;;5008184;28;20068;-69
2021/10/23 08:37:14;;;;;;;20.25;13.02;;;11.10;87.80;;;;;;5009625;28;20046;-73
2021/10/23 08:39:40;;;;;;;19.92;11.68;;;11.30;87.00;;;;;;5010908;28;20096;-69
2021/10/23 08:42:08;;;;;;;19.25;12.18;;;11.50;86.10;;;;;;5010699;28;20520;-69
2021/10/23 08:44:36;;;;;;;17.80;12.00;;;11.60;85.70;;;;;;5011506;28;20938;-68
2021/10/23 08:47:01;;;;;;;18.48;11.65;;;11.80;85.20;;;;;;5005887;28;20120;-70
2021/10/23 08:49:27;;;;;;;16.00;10.82;;;12.10;84.80;;;;;;5014484;28;20100;-71
2021/10/23 08:51:53;;;;;;;14.75;10.82;;;12.10;84.00;;;;;;5011629;28;20037;-76
2021/10/23 08:54:19;;;;;;;15.18;10.88;;;12.30;83.00;;;;;;5002523;28;20160;-70
2021/10/23 08:56:45;;;;;;;16.48;11.75;;;12.40;82.70;;;;;;5008644;28;20042;-69
2021/10/23 08:59:10;;;;;;;17.38;11.25;;;12.50;81.90;;;;;;5011713;28;20080;-71
2021/10/23 09:01:36;;;;;;;17.63;10.45;;;12.60;82.10;;;;;;5005726;28;20037;-71
2021/10/23 09:04:02;;;;;;;14.93;10.88;;;12.60;81.50;;;;;;5010648;28;20022;-70
2021/10/23 09:06:28;;;;;;;17.20;10.20;;;12.70;81.60;;;;;;5010416;28;20372;-69
2021/10/23 09:09:14;;;;;;;14.45;10.32;;;12.80;82.30;;;;;;5010860;28;20492;-78
2021/10/23 09:11:41;;;;;;;16.38;10.57;;;13.00;81.10;;;;;;5001444;28;20157;-69
2021/10/23 09:14:31;;;;;;;18.17;11.25;;;13.00;81.20;;;;;;5008986;28;20053;-73
2021/10/23 09:17:08;;;;;;;16.88;11.32;;;13.00;80.10;;;;;;5007187;28;20041;-70
2021/10/23 09:19:51;;;;;;;17.65;11.15;;;13.10;81.40;;;;;;5007327;28;20101;-69
2021/10/23 09:22:24;;;;;;;15.73;10.75;;;13.30;80.70;;;;;;5000674;28;20037;-69
2021/10/23 09:24:51;;;;;;;15.07;10.20;;;13.40;79.90;;;;;;5007787;28;20030;-70
2021/10/23 09:27:18;;;;;;;16.42;11.43;;;13.60;79.90;;;;;;5005728;28;20037;-69
2021/10/23 09:29:51;;;;;;;17.17;11.82;;;13.60;78.40;;;;;;5012168;28;20157;-70
2021/10/23 09:32:17;;;;;;;17.88;11.27;;;13.60;79.10;;;;;;5008578;28;20038;-69
2021/10/23 09:34:43;;;;;;;15.80;10.38;;;13.60;79.50;;;;;;5010566;28;20307;-69
2021/10/23 09:37:09;;;;;;;15.23;10.10;;;13.90;80.10;;;;;;5006627;28;20117;-69
2021/10/23 09:39:36;;;;;;;15.80;11.52;;;14.00;78.90;;;;;;5005924;28;20057;-69
2021/10/23 09:42:17;;;;;;;13.15;11.10;;;14.10;78.50;;;;;;5007835;28;20049;-69
2021/10/23 09:45:05;;;;;;;16.02;11.48;;;14.20;77.80;;;;;;5008072;28;20030;-69
2021/10/23 09:47:50;;;;;;;19.25;12.48;;;14.40;77.00;;;;;;5009167;28;20033;-70
2021/10/23 09:50:21;;;;;;;13.93;10.32;;;14.40;78.00;;;;;;5008154;28;20032;-74
2021/10/23 09:52:58;;;;;;;15.40;11.13;;;14.60;77.40;;;;;;5010690;28;20026;-69
2021/10/23 09:55:33;;;;;;;16.05;10.35;;;14.70;76.90;;;;;;5008444;28;20037;-70
2021/10/23 09:58:24;;;;;;;13.57;10.35;;;14.70;76.40;;;;;;5014309;28;20026;-70
2021/10/23 10:00:52;;;;;;;13.15;9.52;;;14.80;76.10;;;;;;5004124;28;20062;-70
2021/10/23 10:03:18;;;;;;;13.93;9.80;;;14.80;75.80;;;;;;5000707;28;20053;-69
2021/10/23 10:05:44;;;;;;;14.82;9.65;;;15.00;75.80;;;;;;5005520;28;20029;-69
2021/10/23 10:08:14;;;;;;;14.60;9.68;;;15.00;75.10;;;;;;5005874;28;20121;-70
2021/10/23 10:10:45;;;;;;;16.42;9.70;;;15.10;75.20;;;;;;5004777;28;20026;-70
2021/10/23 10:13:16;;;;;;;16.85;9.57;;;15.10;75.10;;;;;;5007217;28;20109;-69
2021/10/23 10:15:49;;;;;;;15.82;10.75;;;15.20;74.00;;;;;;5005317;28;20030;-69
2021/10/23 10:18:16;;;;;;;13.13;8.63;;;15.20;74.60;;;;;;5007844;28;20038;-70
2021/10/23 10:20:47;;;;;;;16.77;9.18;;;15.30;74.00;;;;;;5007429;28;20034;-70
2021/10/23 10:23:33;;;;;;;15.55;8.82;;;15.40;72.90;;;;;;5006362;28;20481;-69
2021/10/23 10:26:14;;;;;;;11.20;8.15;;;15.40;72.30;;;;;;5008319;28;20526;-74
2021/10/23 10:31:51;;;;;;;12.23;7.90;;;15.40;71.20;;;;;;5004460;28;20053;-69
2021/10/23 10:34:42;;;;;;;12.07;7.57;;;15.10;71.80;;;;;;5009098;28;20026;-70
2021/10/23 10:37:41;;;;;;;14.68;8.07;;;15.30;73.60;;;;;;5002725;28;20041;-71
2021/10/23 10:43:04;;;;;;;9.27;6.20;;;15.60;70.00;;;;;;5009915;28;20038;-70
2021/10/23 10:45:34;;;;;;;10.90;6.72;;;15.60;69.10;;;;;;5009870;28;20038;-70
2021/10/23 10:48:13;;;;;;;9.10;5.38;;;15.70;70.20;;;;;;5009468;28;20058;-70
2021/10/23 10:50:47;;;;;;;9.07;5.65;;;15.70;70.70;;;;;;5008584;28;20037;-70
2021/10/23 10:53:16;;;;;;;;;;;15.90;70.50;;;;;;5005980;28;20064;-73
2021/10/23 10:55:43;;;;;;;8.10;5.05;;;16.10;69.20;;;;;;5007767;28;19963;-69
2021/10/23 10:58:10;;;;;;;9.18;4.63;;;16.10;69.00;;;;;;5004771;28;20037;-74
2021/10/23 11:01:02;;;;;;;8.65;4.18;;;16.10;68.30;;;;;;5005446;28;20465;-70
2021/10/23 11:03:40;;;;;;;8.50;4.43;;;16.10;66.80;;;;;;5011817;28;20034;-74
2021/10/23 11:06:30;;;;;;;9.40;5.10;;;16.10;67.40;;;;;;5015309;28;20290;-71
2021/10/23 11:09:17;;;;;;;8.52;5.13;;;16.10;68.40;;;;;;5004461;28;20057;-71
2021/10/23 11:11:46;;;;;;;8.98;4.25;;;16.10;68.00;;;;;;5000181;28;20042;-69
2021/10/23 11:17:09;;;;;;;7.63;3.65;;;16.20;67.90;;;;;;5002041;28;20072;-75
2021/10/23 11:19:41;;;;;;;6.90;3.80;;;16.20;66.20;;;;;;4987465;28;20419;-71
2021/10/23 11:22:27;;;;;;;9.90;4.50;;;16.10;65.50;;;;;;4994042;28;20030;-70
2021/10/23 11:25:00;;;;;;;8.85;4.40;;;16.10;67.50;;;;;;4999222;28;20426;-70
2021/10/23 11:27:31;;;;;;;10.10;4.38;;;16.10;67.30;;;;;;4998269;28;20036;-71
2021/10/23 11:30:08;;;;;;;8.73;4.95;;;16.20;65.80;;;;;;4998125;28;20046;-71
2021/10/23 11:32:35;;;;;;;10.00;5.00;;;16.20;66.20;;;;;;5002977;28;20145;-69
2021/10/23 11:35:03;;;;;;;10.30;5.20;;;16.30;67.40;;;;;;5003171;28;20295;-71
2021/10/23 11:37:29;;;;;;;7.70;4.68;;;16.50;67.50;;;;;;5000188;28;20033;-70
2021/10/23 11:40:00;;;;;;;8.93;5.13;;;16.40;67.50;;;;;;4998009;28;20041;-73
2021/10/23 11:42:33;;;;;;;8.88;4.75;;;16.60;68.50;;;;;;4999566;28;20524;-75
2021/10/23 11:45:03;;;;;;;8.50;4.25;;;16.50;66.40;;;;;;5014362;28;20049;-70
2021/10/23 11:47:30;;;;;;;11.43;4.72;;;16.50;65.70;;;;;;4999433;28;20041;-70
2021/10/23 11:50:00;;;;;;;9.73;4.93;;;16.60;66.80;;;;;;4998808;28;20041;-71
2021/10/23 11:52:34;;;;;;;9.50;4.13;;;16.50;65.80;;;;;;4999170;28;20113;-70
2021/10/23 11:55:04;;;;;;;9.80;4.10;;;16.50;63.80;;;;;;4999951;28;20421;-73
2021/10/23 11:57:45;;;;;;;8.40;4.22;;;16.50;64.70;;;;;;5001395;28;20060;-75
2021/10/23 12:00:18;;;;;;;7.47;3.90;;;16.50;63.80;;;;;;4996474;28;20022;-69
2021/10/23 12:02:50;;;;;;;7.15;3.20;;;16.30;64.50;;;;;;4997789;28;20034;-76
2021/10/23 12:05:22;;;;;;;6.15;3.05;;;16.30;63.80;;;;;;4995036;28;20099;-70
2021/10/23 12:08:06;;;;;;;7.53;3.38;;;16.40;62.90;;;;;;4997068;28;20042;-75
2021/10/23 12:10:32;;;;;;;7.00;3.10;;;16.60;63.80;;;;;;4998314;28;20030;-73
2021/10/23 12:13:11;;;;;;;7.63;2.33;;;16.90;63.80;;;;;;5000167;28;20038;-71
2021/10/23 12:15:37;;;;;;;6.10;2.20;;;17.10;61.10;;;;;;4999003;28;20030;-72
2021/10/23 12:18:05;;;;;;;6.80;2.35;;;17.30;60.00;;;;;;5002267;28;20030;-71
2021/10/23 12:20:35;;;;;;;7.55;2.30;;;17.50;59.10;;;;;;5000936;28;20476;-70
2021/10/23 12:23:03;;;;;;;7.28;2.80;;;17.70;59.70;;;;;;4997342;28;20050;-70
2021/10/23 12:25:29;;;;;;;8.68;2.65;;;17.70;58.20;;;;;;4998795;28;20469;-71
2021/10/23 12:28:00;;;;;;;5.65;2.17;;;17.70;57.20;;;;;;4999343;28;20036;-71
2021/10/23 12:30:26;;;;;;;4.75;2.03;;;17.80;57.40;;;;;;5003604;28;20026;-70
2021/10/23 12:32:59;;;;;;;6.63;2.70;;;17.50;57.50;;;;;;4997484;28;20109;-73
2021/10/23 12:35:30;;;;;;;8.52;2.92;;;17.20;59.00;;;;;;4991207;28;20448;-75
2021/10/23 12:37:58;;;;;;;5.18;2.15;;;17.00;59.40;;;;;;5000664;28;20089;-70
2021/10/23 12:40:28;;;;;;;7.07;2.17;;;16.90;60.90;;;;;;5005345;28;20077;-71
2021/10/23 12:43:03;;;;;;;4.65;1.92;;;16.80;61.50;;;;;;4996174;28;20062;-70
2021/10/23 12:45:35;;;;;;;5.75;2.20;;;16.60;61.00;;;;;;5001203;28;20063;-70
2021/10/23 12:48:04;;;;;;;6.18;2.40;;;16.60;60.90;;;;;;5003588;28;20033;-71
2021/10/23 12:50:30;;;;;;;5.80;2.10;;;16.40;62.00;;;;;;5003369;28;20045;-70